METAR Data
IDs: Format: Raw Decoded Include TAF

Data at: 1836 UTC 22 May 2019

METAR for:KOPN (Thomaston/Upson Cnty, GA, US)
Text:KOPN 221815Z AUTO 20007G20KT 150V240 CLR 33/12 A3013 RMK AO2 PWINO
Temperature: 33.0°C ( 91°F)
Dewpoint: 12.0°C ( 54°F) [RH = 28%]
Pressure (altimeter):30.13 inches Hg (1020.4 mb)
Winds:from the SSW (200 degrees) at 8 MPH (7 knots; 3.6 m/s) gusting to 23 MPH (20 knots; 10.3 m/s)
Ceiling:at least 12,000 feet AGL
Clouds:sky clear below 12,000 feet AGL
QC Flag:automated observation with no human augmentation

TAF for:KOPN (Thomaston/Upson Cnty, GA, US)
Text:No data found